sensor_id;sensor_type;location;lat;lon;timestamp;temperature;humidity
17421;DHT22;8828;48.800;9.540;2023-04-25T00:01:49;11.00;99.90
17421;DHT22;8828;48.800;9.540;2023-04-25T00:04:17;11.00;99.90
17421;DHT22;8828;48.800;9.540;2023-04-25T00:06:46;11.10;99.90
17421;DHT22;8828;48.800;9.540;2023-04-25T00:09:15;11.10;99.90
17421;DHT22;8828;48.800;9.540;2023-04-25T00:11:42;11.10;99.90
17421;DHT22;8828;48.800;9.540;2023-04-25T00:14:10;11.10;99.90
17421;DHT22;8828;48.800;9.540;2023-04-25T00:16:38;11.10;99.90
17421;DHT22;8828;48.800;9.540;2023-04-25T00:19:07;11.10;99.90
17421;DHT22;8828;48.800;9.540;2023-04-25T00:21:35;11.10;99.90
17421;DHT22;8828;48.800;9.540;2023-04-25T00:24:04;11.10;99.90
17421;DHT22;8828;48.800;9.540;2023-04-25T00:26:33;11.10;99.90
17421;DHT22;8828;48.800;9.540;2023-04-25T00:29:01;11.10;99.90
17421;DHT22;8828;48.800;9.540;2023-04-25T00:31:29;11.20;99.90
17421;DHT22;8828;48.800;9.540;2023-04-25T00:33:57;11.20;99.90
17421;DHT22;8828;48.800;9.540;2023-04-25T00:36:25;11.10;99.90
17421;DHT22;8828;48.800;9.540;2023-04-25T00:38:52;11.10;99.90
17421;DHT22;8828;48.800;9.540;2023-04-25T00:41:20;11.20;99.90
17421;DHT22;8828;48.800;9.540;2023-04-25T00:43:49;11.10;99.90
17421;DHT22;8828;48.800;9.540;2023-04-25T00:46:18;11.20;99.90
17421;DHT22;8828;48.800;9.540;2023-04-25T00:48:46;11.20;99.90
17421;DHT22;8828;48.800;9.540;2023-04-25T00:51:15;11.10;99.90
17421;DHT22;8828;48.800;9.540;2023-04-25T00:53:44;11.10;99.90
17421;DHT22;8828;48.800;9.540;2023-04-25T00:56:12;11.00;99.90
17421;DHT22;8828;48.800;9.540;2023-04-25T00:58:40;11.00;99.90
17421;DHT22;8828;48.800;9.540;2023-04-25T01:01:10;11.00;99.90
17421;DHT22;8828;48.800;9.540;2023-04-25T01:03:38;11.00;99.90
17421;DHT22;8828;48.800;9.540;2023-04-25T01:06:08;11.00;99.90
17421;DHT22;8828;48.800;9.540;2023-04-25T01:08:37;11.00;99.90
17421;DHT22;8828;48.800;9.540;2023-04-25T01:11:05;11.00;99.90
17421;DHT22;8828;48.800;9.540;2023-04-25T01:13:33;11.00;99.90
17421;DHT22;8828;48.800;9.540;2023-04-25T01:16:01;11.00;99.90
17421;DHT22;8828;48.800;9.540;2023-04-25T01:18:31;11.00;99.90
17421;DHT22;8828;48.800;9.540;2023-04-25T01:21:03;10.90;99.90
17421;DHT22;8828;48.800;9.540;2023-04-25T01:23:34;10.90;99.90
17421;DHT22;8828;48.800;9.540;2023-04-25T01:26:02;10.70;99.90
17421;DHT22;8828;48.800;9.540;2023-04-25T01:28:30;10.70;99.90
17421;DHT22;8828;48.800;9.540;2023-04-25T01:30:57;10.70;99.90
17421;DHT22;8828;48.800;9.540;2023-04-25T01:33:25;10.70;99.90
17421;DHT22;8828;48.800;9.540;2023-04-25T01:35:53;10.60;99.90
17421;DHT22;8828;48.800;9.540;2023-04-25T01:38:22;10.70;99.90
17421;DHT22;8828;48.800;9.540;2023-04-25T01:40:50;10.70;99.90
17421;DHT22;8828;48.800;9.540;2023-04-25T01:43:18;10.70;99.90
17421;DHT22;8828;48.800;9.540;2023-04-25T01:45:46;10.70;99.90
17421;DHT22;8828;48.800;9.540;2023-04-25T01:48:14;10.70;99.90
17421;DHT22;8828;48.800;9.540;2023-04-25T01:50:42;10.70;99.90
17421;DHT22;8828;48.800;9.540;2023-04-25T01:53:10;10.80;99.90
17421;DHT22;8828;48.800;9.540;2023-04-25T01:55:40;10.70;99.90
17421;DHT22;8828;48.800;9.540;2023-04-25T01:58:08;10.80;99.90
17421;DHT22;8828;48.800;9.540;2023-04-25T02:00:39;10.70;99.90
17421;DHT22;8828;48.800;9.540;2023-04-25T02:03:07;10.70;99.90
17421;DHT22;8828;48.800;9.540;2023-04-25T02:05:35;10.70;99.90
17421;DHT22;8828;48.800;9.540;2023-04-25T02:08:04;10.70;99.90
17421;DHT22;8828;48.800;9.540;2023-04-25T02:10:32;10.70;99.90
17421;DHT22;8828;48.800;9.540;2023-04-25T02:13:01;10.80;99.90
17421;DHT22;8828;48.800;9.540;2023-04-25T02:15:30;10.70;99.90
17421;DHT22;8828;48.800;9.540;2023-04-25T02:17:58;10.70;99.90
17421;DHT22;8828;48.800;9.540;2023-04-25T02:20:27;10.70;99.90
17421;DHT22;8828;48.800;9.540;2023-04-25T02:22:56;10.70;99.90
17421;DHT22;8828;48.800;9.540;2023-04-25T02:25:24;10.70;99.90
17421;DHT22;8828;48.800;9.540;2023-04-25T02:27:52;10.70;99.90
17421;DHT22;8828;48.800;9.540;2023-04-25T02:30:21;10.70;99.90
17421;DHT22;8828;48.800;9.540;2023-04-25T02:32:49;10.80;99.90
17421;DHT22;8828;48.800;9.540;2023-04-25T02:35:17;10.80;99.90
17421;DHT22;8828;48.800;9.540;2023-04-25T02:37:46;10.80;99.90
17421;DHT22;8828;48.800;9.540;2023-04-25T02:40:13;10.80;99.90
17421;DHT22;8828;48.800;9.540;2023-04-25T02:42:41;10.80;99.90
17421;DHT22;8828;48.800;9.540;2023-04-25T02:45:09;10.80;99.90
17421;DHT22;8828;48.800;9.540;2023-04-25T02:47:38;10.80;99.90
17421;DHT22;8828;48.800;9.540;2023-04-25T02:50:06;10.80;99.90
17421;DHT22;8828;48.800;9.540;2023-04-25T02:52:34;10.70;99.90
17421;DHT22;8828;48.800;9.540;2023-04-25T02:55:02;10.70;99.90
17421;DHT22;8828;48.800;9.540;2023-04-25T02:57:30;10.70;99.90
17421;DHT22;8828;48.800;9.540;2023-04-25T02:59:58;10.70;99.90
17421;DHT22;8828;48.800;9.540;2023-04-25T03:02:26;10.60;99.90
17421;DHT22;8828;48.800;9.540;2023-04-25T03:04:55;10.70;99.90
17421;DHT22;8828;48.800;9.540;2023-04-25T03:07:23;10.60;99.90
17421;DHT22;8828;48.800;9.540;2023-04-25T03:09:50;10.60;99.90
17421;DHT22;8828;48.800;9.540;2023-04-25T03:12:18;10.50;99.90
17421;DHT22;8828;48.800;9.540;2023-04-25T03:14:46;10.50;99.90
17421;DHT22;8828;48.800;9.540;2023-04-25T03:17:14;10.50;99.90
17421;DHT22;8828;48.800;9.540;2023-04-25T03:19:42;10.50;99.90
17421;DHT22;8828;48.800;9.540;2023-04-25T03:22:11;10.50;99.90
17421;DHT22;8828;48.800;9.540;2023-04-25T03:24:39;10.40;99.90
17421;DHT22;8828;48.800;9.540;2023-04-25T03:27:06;10.40;99.90
17421;DHT22;8828;48.800;9.540;2023-04-25T03:29:34;10.30;99.90
17421;DHT22;8828;48.800;9.540;2023-04-25T03:32:02;10.40;99.90
17421;DHT22;8828;48.800;9.540;2023-04-25T03:34:30;10.40;99.90
17421;DHT22;8828;48.800;9.540;2023-04-25T03:36:58;10.40;99.90
17421;DHT22;8828;48.800;9.540;2023-04-25T03:39:27;10.40;99.90
17421;DHT22;8828;48.800;9.540;2023-04-25T03:41:55;10.40;99.90
17421;DHT22;8828;48.800;9.540;2023-04-25T03:44:23;10.40;99.90
17421;DHT22;8828;48.800;9.540;2023-04-25T03:46:51;10.40;99.90
17421;DHT22;8828;48.800;9.540;2023-04-25T03:49:19;10.40;99.90
17421;DHT22;8828;48.800;9.540;2023-04-25T03:51:47;10.40;99.90
17421;DHT22;8828;48.800;9.540;2023-04-25T03:54:14;10.40;99.90
17421;DHT22;8828;48.800;9.540;2023-04-25T03:56:43;10.40;99.90
17421;DHT22;8828;48.800;9.540;2023-04-25T03:59:11;10.40;99.90
17421;DHT22;8828;48.800;9.540;2023-04-25T04:01:39;10.50;99.90
17421;DHT22;8828;48.800;9.540;2023-04-25T04:04:07;10.40;99.90
17421;DHT22;8828;48.800;9.540;2023-04-25T04:06:35;10.50;99.90
17421;DHT22;8828;48.800;9.540;2023-04-25T04:09:02;10.40;99.90
17421;DHT22;8828;48.800;9.540;2023-04-25T04:11:30;10.40;99.90
17421;DHT22;8828;48.800;9.540;2023-04-25T04:14:00;10.40;99.90
17421;DHT22;8828;48.800;9.540;2023-04-25T04:16:27;10.40;99.90
17421;DHT22;8828;48.800;9.540;2023-04-25T04:18:57;10.40;99.90
17421;DHT22;8828;48.800;9.540;2023-04-25T04:21:25;10.40;99.90
17421;DHT22;8828;48.800;9.540;2023-04-25T04:23:53;10.40;99.90
17421;DHT22;8828;48.800;9.540;2023-04-25T04:26:21;10.30;99.90
17421;DHT22;8828;48.800;9.540;2023-04-25T04:28:50;10.30;99.90
17421;DHT22;8828;48.800;9.540;2023-04-25T04:31:19;10.30;99.90
17421;DHT22;8828;48.800;9.540;2023-04-25T04:33:48;10.40;99.90
17421;DHT22;8828;48.800;9.540;2023-04-25T04:36:16;10.30;99.90
17421;DHT22;8828;48.800;9.540;2023-04-25T04:38:46;10.30;99.90
17421;DHT22;8828;48.800;9.540;2023-04-25T04:41:14;10.30;99.90
17421;DHT22;8828;48.800;9.540;2023-04-25T04:43:41;10.30;99.90
17421;DHT22;8828;48.800;9.540;2023-04-25T04:46:09;10.30;99.90
17421;DHT22;8828;48.800;9.540;2023-04-25T04:48:40;10.30;99.90
17421;DHT22;8828;48.800;9.540;2023-04-25T04:51:08;10.30;99.90
17421;DHT22;8828;48.800;9.540;2023-04-25T04:53:36;10.30;99.90
17421;DHT22;8828;48.800;9.540;2023-04-25T04:56:04;10.30;99.90
17421;DHT22;8828;48.800;9.540;2023-04-25T04:58:31;10.30;99.90
17421;DHT22;8828;48.800;9.540;2023-04-25T05:00:59;10.40;99.90
17421;DHT22;8828;48.800;9.540;2023-04-25T05:03:27;10.30;99.90
17421;DHT22;8828;48.800;9.540;2023-04-25T05:05:56;10.30;99.90
17421;DHT22;8828;48.800;9.540;2023-04-25T05:08:24;10.30;99.90
17421;DHT22;8828;48.800;9.540;2023-04-25T05:10:52;10.40;99.90
17421;DHT22;8828;48.800;9.540;2023-04-25T05:13:20;10.40;99.90
17421;DHT22;8828;48.800;9.540;2023-04-25T05:15:47;10.40;99.90
17421;DHT22;8828;48.800;9.540;2023-04-25T05:18:15;10.50;99.90
17421;DHT22;8828;48.800;9.540;2023-04-25T05:20:43;10.50;99.90
17421;DHT22;8828;48.800;9.540;2023-04-25T05:23:12;10.60;99.90
17421;DHT22;8828;48.800;9.540;2023-04-25T05:25:40;10.60;99.90
17421;DHT22;8828;48.800;9.540;2023-04-25T05:28:07;10.60;99.90
17421;DHT22;8828;48.800;9.540;2023-04-25T05:30:35;10.60;99.90
17421;DHT22;8828;48.800;9.540;2023-04-25T05:33:03;10.60;99.90
17421;DHT22;8828;48.800;9.540;2023-04-25T05:35:31;10.60;99.90
17421;DHT22;8828;48.800;9.540;2023-04-25T05:37:58;10.70;99.90
17421;DHT22;8828;48.800;9.540;2023-04-25T05:40:28;10.70;99.90
17421;DHT22;8828;48.800;9.540;2023-04-25T05:42:55;10.70;99.90
17421;DHT22;8828;48.800;9.540;2023-04-25T05:45:23;10.70;99.90
17421;DHT22;8828;48.800;9.540;2023-04-25T05:47:51;10.80;99.90
17421;DHT22;8828;48.800;9.540;2023-04-25T05:50:19;10.80;99.90
17421;DHT22;8828;48.800;9.540;2023-04-25T05:52:46;10.80;99.90
17421;DHT22;8828;48.800;9.540;2023-04-25T05:55:14;10.90;99.90
17421;DHT22;8828;48.800;9.540;2023-04-25T05:57:43;10.90;99.90
17421;DHT22;8828;48.800;9.540;2023-04-25T06:00:12;11.00;99.90
17421;DHT22;8828;48.800;9.540;2023-04-25T06:02:41;11.00;99.90
17421;DHT22;8828;48.800;9.540;2023-04-25T06:05:09;11.00;99.90
17421;DHT22;8828;48.800;9.540;2023-04-25T06:07:37;11.00;99.90
17421;DHT22;8828;48.800;9.540;2023-04-25T06:10:06;11.00;99.90
17421;DHT22;8828;48.800;9.540;2023-04-25T06:12:34;11.00;99.90
17421;DHT22;8828;48.800;9.540;2023-04-25T06:15:03;11.00;99.90
17421;DHT22;8828;48.800;9.540;2023-04-25T06:17:49;11.10;99.90
17421;DHT22;8828;48.800;9.540;2023-04-25T06:20:17;11.10;99.90
17421;DHT22;8828;48.800;9.540;2023-04-25T06:22:49;11.10;99.90
17421;DHT22;8828;48.800;9.540;2023-04-25T06:25:18;11.10;99.90
17421;DHT22;8828;48.800;9.540;2023-04-25T06:27:46;11.10;99.90
17421;DHT22;8828;48.800;9.540;2023-04-25T06:30:15;11.10;99.90
17421;DHT22;8828;48.800;9.540;2023-04-25T06:32:44;11.10;99.90
17421;DHT22;8828;48.800;9.540;2023-04-25T06:35:12;11.10;99.90
17421;DHT22;8828;48.800;9.540;2023-04-25T06:37:40;11.10;99.90
17421;DHT22;8828;48.800;9.540;2023-04-25T06:40:08;11.10;99.90
17421;DHT22;8828;48.800;9.540;2023-04-25T06:42:36;11.00;99.90
17421;DHT22;8828;48.800;9.540;2023-04-25T06:45:04;11.00;99.90
17421;DHT22;8828;48.800;9.540;2023-04-25T06:47:33;10.90;99.90
17421;DHT22;8828;48.800;9.540;2023-04-25T06:50:01;10.80;99.90
17421;DHT22;8828;48.800;9.540;2023-04-25T06:52:29;10.90;99.90
17421;DHT22;8828;48.800;9.540;2023-04-25T06:54:57;10.90;99.90
17421;DHT22;8828;48.800;9.540;2023-04-25T06:57:25;10.90;99.90
17421;DHT22;8828;48.800;9.540;2023-04-25T06:59:53;11.00;99.90
17421;DHT22;8828;48.800;9.540;2023-04-25T07:02:20;11.00;99.90
17421;DHT22;8828;48.800;9.540;2023-04-25T07:04:50;11.00;99.90
17421;DHT22;8828;48.800;9.540;2023-04-25T07:07:18;11.10;99.90
17421;DHT22;8828;48.800;9.540;2023-04-25T07:09:46;11.20;99.90
17421;DHT22;8828;48.800;9.540;2023-04-25T07:12:14;11.30;99.90
17421;DHT22;8828;48.800;9.540;2023-04-25T07:14:41;11.30;99.90
17421;DHT22;8828;48.800;9.540;2023-04-25T07:17:09;11.40;99.90
17421;DHT22;8828;48.800;9.540;2023-04-25T07:19:37;11.40;99.90
17421;DHT22;8828;48.800;9.540;2023-04-25T07:22:07;11.60;99.90
17421;DHT22;8828;48.800;9.540;2023-04-25T07:24:35;11.60;99.90
17421;DHT22;8828;48.800;9.540;2023-04-25T07:27:03;11.60;99.90
17421;DHT22;8828;48.800;9.540;2023-04-25T07:29:31;11.60;99.90
17421;DHT22;8828;48.800;9.540;2023-04-25T07:31:59;11.50;99.90
17421;DHT22;8828;48.800;9.540;2023-04-25T07:34:27;11.50;99.90
17421;DHT22;8828;48.800;9.540;2023-04-25T07:36:56;11.40;99.90
17421;DHT22;8828;48.800;9.540;2023-04-25T07:39:27;11.40;99.90
17421;DHT22;8828;48.800;9.540;2023-04-25T07:41:54;11.40;99.90
17421;DHT22;8828;48.800;9.540;2023-04-25T07:44:22;11.40;99.90
17421;DHT22;8828;48.800;9.540;2023-04-25T07:46:50;11.30;99.90
17421;DHT22;8828;48.800;9.540;2023-04-25T07:49:18;11.30;99.90
17421;DHT22;8828;48.800;9.540;2023-04-25T07:51:46;11.30;99.90
17421;DHT22;8828;48.800;9.540;2023-04-25T07:54:14;11.40;99.90
17421;DHT22;8828;48.800;9.540;2023-04-25T07:56:43;11.40;99.90
17421;DHT22;8828;48.800;9.540;2023-04-25T07:59:19;11.40;99.90
17421;DHT22;8828;48.800;9.540;2023-04-25T08:01:47;11.30;99.90
17421;DHT22;8828;48.800;9.540;2023-04-25T08:04:15;11.30;99.90
17421;DHT22;8828;48.800;9.540;2023-04-25T08:06:43;11.30;99.90
17421;DHT22;8828;48.800;9.540;2023-04-25T08:09:11;11.30;99.90
17421;DHT22;8828;48.800;9.540;2023-04-25T08:11:39;11.30;99.90
17421;DHT22;8828;48.800;9.540;2023-04-25T08:14:09;11.30;99.90
17421;DHT22;8828;48.800;9.540;2023-04-25T08:16:38;11.30;99.90
17421;DHT22;8828;48.800;9.540;2023-04-25T08:19:05;11.30;99.90
17421;DHT22;8828;48.800;9.540;2023-04-25T08:21:33;11.30;99.90
17421;DHT22;8828;48.800;9.540;2023-04-25T08:24:01;11.30;99.90
17421;DHT22;8828;48.800;9.540;2023-04-25T08:26:29;11.20;99.90
17421;DHT22;8828;48.800;9.540;2023-04-25T08:28:56;11.10;99.90
17421;DHT22;8828;48.800;9.540;2023-04-25T08:31:26;11.10;99.90
17421;DHT22;8828;48.800;9.540;2023-04-25T08:33:53;11.10;99.90
17421;DHT22;8828;48.800;9.540;2023-04-25T08:36:21;11.10;99.90
17421;DHT22;8828;48.800;9.540;2023-04-25T08:39:04;11.00;99.90
17421;DHT22;8828;48.800;9.540;2023-04-25T08:41:32;11.00;99.90
17421;DHT22;8828;48.800;9.540;2023-04-25T08:43:59;11.00;99.90
17421;DHT22;8828;48.800;9.540;2023-04-25T08:46:29;11.00;99.90
17421;DHT22;8828;48.800;9.540;2023-04-25T08:49:00;11.00;99.90
17421;DHT22;8828;48.800;9.540;2023-04-25T08:51:29;11.00;99.90
17421;DHT22;8828;48.800;9.540;2023-04-25T08:54:06;11.00;99.90
17421;DHT22;8828;48.800;9.540;2023-04-25T08:56:55;10.90;99.90
17421;DHT22;8828;48.800;9.540;2023-04-25T08:59:24;10.90;99.90
17421;DHT22;8828;48.800;9.540;2023-04-25T09:01:53;10.90;99.90
17421;DHT22;8828;48.800;9.540;2023-04-25T09:04:22;10.90;99.90
17421;DHT22;8828;48.800;9.540;2023-04-25T09:06:50;10.90;99.90
17421;DHT22;8828;48.800;9.540;2023-04-25T09:09:17;10.70;99.90
17421;DHT22;8828;48.800;9.540;2023-04-25T09:11:45;10.70;99.90
17421;DHT22;8828;48.800;9.540;2023-04-25T09:14:14;10.70;99.90
17421;DHT22;8828;48.800;9.540;2023-04-25T09:16:58;10.70;99.90
17421;DHT22;8828;48.800;9.540;2023-04-25T09:19:27;10.70;99.90
17421;DHT22;8828;48.800;9.540;2023-04-25T09:22:06;10.70;99.90
17421;DHT22;8828;48.800;9.540;2023-04-25T09:24:35;10.60;99.90
17421;DHT22;8828;48.800;9.540;2023-04-25T09:27:03;10.60;99.90
17421;DHT22;8828;48.800;9.540;2023-04-25T09:29:31;10.60;99.90
17421;DHT22;8828;48.800;9.540;2023-04-25T09:32:14;10.60;99.90
17421;DHT22;8828;48.800;9.540;2023-04-25T09:34:42;10.70;99.90
17421;DHT22;8828;48.800;9.540;2023-04-25T09:37:10;10.60;99.90
17421;DHT22;8828;48.800;9.540;2023-04-25T09:39:38;10.40;99.90
17421;DHT22;8828;48.800;9.540;2023-04-25T09:42:07;10.30;99.90
17421;DHT22;8828;48.800;9.540;2023-04-25T09:44:36;10.30;99.90
17421;DHT22;8828;48.800;9.540;2023-04-25T09:47:04;10.40;99.90
17421;DHT22;8828;48.800;9.540;2023-04-25T09:49:39;10.40;99.90
17421;DHT22;8828;48.800;9.540;2023-04-25T09:52:08;10.40;99.90
17421;DHT22;8828;48.800;9.540;2023-04-25T09:54:36;10.40;99.90
17421;DHT22;8828;48.800;9.540;2023-04-25T09:57:06;10.40;99.90
17421;DHT22;8828;48.800;9.540;2023-04-25T09:59:38;10.40;99.90
17421;DHT22;8828;48.800;9.540;2023-04-25T10:02:07;10.40;99.90
17421;DHT22;8828;48.800;9.540;2023-04-25T10:04:35;10.40;99.90
17421;DHT22;8828;48.800;9.540;2023-04-25T10:07:07;10.50;99.90
17421;DHT22;8828;48.800;9.540;2023-04-25T10:09:36;10.40;99.90
17421;DHT22;8828;48.800;9.540;2023-04-25T10:12:06;10.40;99.90
17421;DHT22;8828;48.800;9.540;2023-04-25T10:14:34;10.40;99.90
17421;DHT22;8828;48.800;9.540;2023-04-25T10:17:02;10.40;99.90
17421;DHT22;8828;48.800;9.540;2023-04-25T10:19:30;10.50;99.90
17421;DHT22;8828;48.800;9.540;2023-04-25T10:22:06;10.50;99.90
17421;DHT22;8828;48.800;9.540;2023-04-25T10:24:36;10.50;99.90
17421;DHT22;8828;48.800;9.540;2023-04-25T10:27:04;10.40;99.90
17421;DHT22;8828;48.800;9.540;2023-04-25T10:29:33;10.50;99.90
17421;DHT22;8828;48.800;9.540;2023-04-25T10:32:01;10.50;99.90
17421;DHT22;8828;48.800;9.540;2023-04-25T10:34:39;10.60;99.90
17421;DHT22;8828;48.800;9.540;2023-04-25T10:37:10;10.70;99.90
17421;DHT22;8828;48.800;9.540;2023-04-25T10:39:40;10.80;99.90
17421;DHT22;8828;48.800;9.540;2023-04-25T10:42:08;10.90;99.90
17421;DHT22;8828;48.800;9.540;2023-04-25T10:44:36;10.90;99.90
17421;DHT22;8828;48.800;9.540;2023-04-25T10:47:07;11.00;99.90
17421;DHT22;8828;48.800;9.540;2023-04-25T10:49:36;11.00;99.90
17421;DHT22;8828;48.800;9.540;2023-04-25T10:52:11;10.90;99.90
17421;DHT22;8828;48.800;9.540;2023-04-25T10:54:43;10.80;99.90
17421;DHT22;8828;48.800;9.540;2023-04-25T10:57:29;10.80;99.90
17421;DHT22;8828;48.800;9.540;2023-04-25T11:00:07;10.90;99.90
17421;DHT22;8828;48.800;9.540;2023-04-25T11:02:37;10.80;99.90
17421;DHT22;8828;48.800;9.540;2023-04-25T11:05:08;10.70;99.90
17421;DHT22;8828;48.800;9.540;2023-04-25T11:07:44;10.60;99.90
17421;DHT22;8828;48.800;9.540;2023-04-25T11:10:31;10.50;99.90
17421;DHT22;8828;48.800;9.540;2023-04-25T11:12:59;10.20;99.90
17421;DHT22;8828;48.800;9.540;2023-04-25T11:15:27;10.00;99.90
17421;DHT22;8828;48.800;9.540;2023-04-25T11:17:56;9.90;99.90
17421;DHT22;8828;48.800;9.540;2023-04-25T11:20:25;9.80;99.90
17421;DHT22;8828;48.800;9.540;2023-04-25T11:22:54;9.80;99.90
17421;DHT22;8828;48.800;9.540;2023-04-25T11:25:25;9.70;99.90
17421;DHT22;8828;48.800;9.540;2023-04-25T11:27:55;9.60;99.90
17421;DHT22;8828;48.800;9.540;2023-04-25T11:30:24;9.60;99.90
17421;DHT22;8828;48.800;9.540;2023-04-25T11:32:52;9.50;99.90
17421;DHT22;8828;48.800;9.540;2023-04-25T11:35:20;9.60;99.90
17421;DHT22;8828;48.800;9.540;2023-04-25T11:37:49;9.60;99.90
17421;DHT22;8828;48.800;9.540;2023-04-25T11:40:17;9.50;99.90
17421;DHT22;8828;48.800;9.540;2023-04-25T11:42:45;9.50;99.90
17421;DHT22;8828;48.800;9.540;2023-04-25T11:45:15;9.40;99.90
17421;DHT22;8828;48.800;9.540;2023-04-25T11:47:42;9.40;99.90
17421;DHT22;8828;48.800;9.540;2023-04-25T11:50:10;9.50;99.90
17421;DHT22;8828;48.800;9.540;2023-04-25T11:52:38;9.50;99.90
17421;DHT22;8828;48.800;9.540;2023-04-25T11:55:07;9.50;99.90
17421;DHT22;8828;48.800;9.540;2023-04-25T11:57:37;9.60;99.90
17421;DHT22;8828;48.800;9.540;2023-04-25T12:00:06;9.50;99.90
17421;DHT22;8828;48.800;9.540;2023-04-25T12:02:36;9.50;99.90
17421;DHT22;8828;48.800;9.540;2023-04-25T12:05:06;9.40;99.90
17421;DHT22;8828;48.800;9.540;2023-04-25T12:07:55;9.40;99.90
17421;DHT22;8828;48.800;9.540;2023-04-25T12:10:24;9.40;99.90
17421;DHT22;8828;48.800;9.540;2023-04-25T12:12:52;9.40;99.90
17421;DHT22;8828;48.800;9.540;2023-04-25T12:15:23;9.50;99.90
17421;DHT22;8828;48.800;9.540;2023-04-25T12:17:52;9.60;99.90
17421;DHT22;8828;48.800;9.540;2023-04-25T12:20:23;9.50;99.90
17421;DHT22;8828;48.800;9.540;2023-04-25T12:22:51;9.50;99.90
17421;DHT22;8828;48.800;9.540;2023-04-25T12:25:35;9.70;99.90
17421;DHT22;8828;48.800;9.540;2023-04-25T12:28:10;9.90;99.90
17421;DHT22;8828;48.800;9.540;2023-04-25T12:30:54;10.00;99.90
17421;DHT22;8828;48.800;9.540;2023-04-25T12:33:24;10.10;99.90
17421;DHT22;8828;48.800;9.540;2023-04-25T12:35:52;10.20;99.90
17421;DHT22;8828;48.800;9.540;2023-04-25T12:38:21;10.30;99.90
17421;DHT22;8828;48.800;9.540;2023-04-25T12:40:48;10.50;99.90
17421;DHT22;8828;48.800;9.540;2023-04-25T12:43:16;10.50;99.90
17421;DHT22;8828;48.800;9.540;2023-04-25T12:45:44;10.60;99.90
17421;DHT22;8828;48.800;9.540;2023-04-25T12:48:12;10.80;99.90
17421;DHT22;8828;48.800;9.540;2023-04-25T12:50:41;11.10;99.90
17421;DHT22;8828;48.800;9.540;2023-04-25T12:53:09;11.30;99.90
17421;DHT22;8828;48.800;9.540;2023-04-25T12:55:37;11.50;99.90
17421;DHT22;8828;48.800;9.540;2023-04-25T12:58:05;11.50;99.90
17421;DHT22;8828;48.800;9.540;2023-04-25T13:00:34;11.60;99.90
17421;DHT22;8828;48.800;9.540;2023-04-25T13:03:02;11.60;99.90
17421;DHT22;8828;48.800;9.540;2023-04-25T13:05:31;11.60;99.90
17421;DHT22;8828;48.800;9.540;2023-04-25T13:08:00;11.60;99.90
17421;DHT22;8828;48.800;9.540;2023-04-25T13:10:28;11.30;99.90
17421;DHT22;8828;48.800;9.540;2023-04-25T13:12:56;11.20;99.90
17421;DHT22;8828;48.800;9.540;2023-04-25T13:15:24;11.30;99.90
17421;DHT22;8828;48.800;9.540;2023-04-25T13:17:52;11.20;99.90
17421;DHT22;8828;48.800;9.540;2023-04-25T13:20:19;11.20;99.90
17421;DHT22;8828;48.800;9.540;2023-04-25T13:22:48;11.10;99.90
17421;DHT22;8828;48.800;9.540;2023-04-25T13:25:18;11.00;99.90
17421;DHT22;8828;48.800;9.540;2023-04-25T13:27:46;11.10;99.90
17421;DHT22;8828;48.800;9.540;2023-04-25T13:30:13;11.10;99.90
17421;DHT22;8828;48.800;9.540;2023-04-25T13:32:41;11.10;99.90
17421;DHT22;8828;48.800;9.540;2023-04-25T13:35:10;11.10;99.90
17421;DHT22;8828;48.800;9.540;2023-04-25T13:37:38;11.20;99.90
17421;DHT22;8828;48.800;9.540;2023-04-25T13:40:07;11.40;99.90
17421;DHT22;8828;48.800;9.540;2023-04-25T13:42:37;11.60;99.90
17421;DHT22;8828;48.800;9.540;2023-04-25T13:45:06;11.70;99.90
17421;DHT22;8828;48.800;9.540;2023-04-25T13:47:35;11.90;99.90
17421;DHT22;8828;48.800;9.540;2023-04-25T13:50:03;12.10;99.90
17421;DHT22;8828;48.800;9.540;2023-04-25T13:52:32;12.30;99.90
17421;DHT22;8828;48.800;9.540;2023-04-25T13:55:00;12.20;99.90
17421;DHT22;8828;48.800;9.540;2023-04-25T13:57:30;12.20;99.90
17421;DHT22;8828;48.800;9.540;2023-04-25T13:59:59;12.10;99.90
17421;DHT22;8828;48.800;9.540;2023-04-25T14:02:31;12.00;99.90
17421;DHT22;8828;48.800;9.540;2023-04-25T14:04:59;12.00;99.90
17421;DHT22;8828;48.800;9.540;2023-04-25T14:07:27;12.10;99.90
17421;DHT22;8828;48.800;9.540;2023-04-25T14:09:55;12.30;99.90
17421;DHT22;8828;48.800;9.540;2023-04-25T14:12:23;12.40;99.90
17421;DHT22;8828;48.800;9.540;2023-04-25T14:14:51;12.50;99.90
17421;DHT22;8828;48.800;9.540;2023-04-25T14:17:23;12.50;99.90
17421;DHT22;8828;48.800;9.540;2023-04-25T14:19:51;12.40;99.90
17421;DHT22;8828;48.800;9.540;2023-04-25T14:22:19;12.30;99.90
17421;DHT22;8828;48.800;9.540;2023-04-25T14:24:47;12.10;99.90
17421;DHT22;8828;48.800;9.540;2023-04-25T14:27:15;12.00;99.90
17421;DHT22;8828;48.800;9.540;2023-04-25T14:29:43;11.80;99.90
17421;DHT22;8828;48.800;9.540;2023-04-25T14:32:10;11.70;99.90
17421;DHT22;8828;48.800;9.540;2023-04-25T14:34:39;11.50;99.90
17421;DHT22;8828;48.800;9.540;2023-04-25T14:37:07;11.30;99.90
17421;DHT22;8828;48.800;9.540;2023-04-25T14:39:35;11.30;99.90
17421;DHT22;8828;48.800;9.540;2023-04-25T14:42:04;11.30;99.90
17421;DHT22;8828;48.800;9.540;2023-04-25T14:44:32;11.50;99.90
17421;DHT22;8828;48.800;9.540;2023-04-25T14:46:59;11.70;99.90
17421;DHT22;8828;48.800;9.540;2023-04-25T14:49:27;11.90;99.90
17421;DHT22;8828;48.800;9.540;2023-04-25T14:51:56;12.10;99.90
17421;DHT22;8828;48.800;9.540;2023-04-25T14:54:24;12.10;99.90
17421;DHT22;8828;48.800;9.540;2023-04-25T14:56:52;12.20;99.90
17421;DHT22;8828;48.800;9.540;2023-04-25T14:59:20;12.30;99.90
17421;DHT22;8828;48.800;9.540;2023-04-25T15:01:48;12.30;99.90
17421;DHT22;8828;48.800;9.540;2023-04-25T15:04:16;12.20;99.90
17421;DHT22;8828;48.800;9.540;2023-04-25T15:06:44;12.00;99.90
17421;DHT22;8828;48.800;9.540;2023-04-25T15:09:14;12.00;99.90
17421;DHT22;8828;48.800;9.540;2023-04-25T15:11:42;11.90;99.90
17421;DHT22;8828;48.800;9.540;2023-04-25T15:14:10;12.00;99.90
17421;DHT22;8828;48.800;9.540;2023-04-25T15:16:38;12.00;99.90
17421;DHT22;8828;48.800;9.540;2023-04-25T15:19:06;11.90;99.90
17421;DHT22;8828;48.800;9.540;2023-04-25T15:21:33;11.90;99.90
17421;DHT22;8828;48.800;9.540;2023-04-25T15:24:01;11.80;99.90
17421;DHT22;8828;48.800;9.540;2023-04-25T15:26:30;11.80;99.90
17421;DHT22;8828;48.800;9.540;2023-04-25T15:28:58;11.80;99.90
17421;DHT22;8828;48.800;9.540;2023-04-25T15:31:26;11.80;99.90
17421;DHT22;8828;48.800;9.540;2023-04-25T15:33:53;11.90;99.90
17421;DHT22;8828;48.800;9.540;2023-04-25T15:36:21;11.90;99.90
17421;DHT22;8828;48.800;9.540;2023-04-25T15:38:49;11.90;99.90
17421;DHT22;8828;48.800;9.540;2023-04-25T15:41:17;12.00;99.90
17421;DHT22;8828;48.800;9.540;2023-04-25T15:43:47;11.90;99.90
17421;DHT22;8828;48.800;9.540;2023-04-25T15:46:15;11.80;99.90
17421;DHT22;8828;48.800;9.540;2023-04-25T15:48:43;11.90;99.90
17421;DHT22;8828;48.800;9.540;2023-04-25T15:51:11;11.80;99.90
17421;DHT22;8828;48.800;9.540;2023-04-25T15:53:39;11.80;99.90
17421;DHT22;8828;48.800;9.540;2023-04-25T15:56:07;11.90;99.90
17421;DHT22;8828;48.800;9.540;2023-04-25T15:58:35;11.90;99.90